createdAt,value
2022-12-15T00:01:20.826Z,42.25
2022-12-15T00:03:41.208Z,40.47
2022-12-15T00:06:01.708Z,41.75
2022-12-15T00:08:26.180Z,43.75
2022-12-15T00:10:46.485Z,42.20
2022-12-15T00:13:06.713Z,43.40
2022-12-15T00:15:27.057Z,41.80
2022-12-15T00:17:47.346Z,40.10
2022-12-15T00:20:07.563Z,42.30
2022-12-15T00:22:37.669Z,37.10
2022-12-15T00:25:03.318Z,43.75
2022-12-15T00:27:23.504Z,39.22
2022-12-15T00:29:43.839Z,39.03
2022-12-15T00:32:06.010Z,40.90
2022-12-15T00:34:26.982Z,42.33
2022-12-15T00:36:49.840Z,38.33
2022-12-15T00:39:03.497Z,39.97
2022-12-15T00:41:15.996Z,45.20
2022-12-15T00:43:26.551Z,41.40
2022-12-15T00:45:46.715Z,41.70
2022-12-15T00:47:54.553Z,41.47
2022-12-15T00:50:16.033Z,42.50
2022-12-15T00:52:38.633Z,39.10
2022-12-15T00:54:59.055Z,36.08
2022-12-15T00:57:22.403Z,43.22
2022-12-15T00:59:42.675Z,42.10
2022-12-15T01:02:03.151Z,40.65
2022-12-15T01:04:23.627Z,39.40
2022-12-15T01:06:43.830Z,43.45
2022-12-15T01:09:04.062Z,40.08
2022-12-15T01:11:24.309Z,36.60
2022-12-15T01:13:49.567Z,38.83
2022-12-15T01:16:10.437Z,41.45
2022-12-15T01:18:30.850Z,40.40
2022-12-15T01:20:39.733Z,37.38
2022-12-15T01:22:49.603Z,40.90
2022-12-15T01:24:57.398Z,40.38
2022-12-15T01:27:05.738Z,34.00
2022-12-15T01:29:16.551Z,44.03
2022-12-15T01:31:27.648Z,36.47
2022-12-15T01:33:35.589Z,42.33
2022-12-15T01:35:43.886Z,38.22
2022-12-15T01:37:51.787Z,40.88
2022-12-15T01:40:12.152Z,43.88
2022-12-15T01:42:20.324Z,42.15
2022-12-15T01:44:30.926Z,40.00
2022-12-15T01:46:40.290Z,42.75
2022-12-15T01:48:52.052Z,37.17
2022-12-15T01:51:07.444Z,43.45
2022-12-15T01:53:27.972Z,40.50
2022-12-15T01:55:36.682Z,46.20
2022-12-15T01:57:46.474Z,44.13
2022-12-15T02:00:00.847Z,42.80
2022-12-15T02:02:08.959Z,41.95
2022-12-15T02:04:18.109Z,40.45
2022-12-15T02:06:29.301Z,43.85
2022-12-15T02:08:37.475Z,42.30
2022-12-15T02:11:01.212Z,43.17
2022-12-15T02:13:18.965Z,38.90
2022-12-15T02:15:36.724Z,43.25
2022-12-15T02:17:54.296Z,41.08
2022-12-15T02:20:29.161Z,39.85
2022-12-15T02:22:54.668Z,39.60
2022-12-15T02:25:29.637Z,40.40
2022-12-15T02:27:56.886Z,44.97
2022-12-15T02:30:24.826Z,36.35
2022-12-15T02:32:35.377Z,39.83
2022-12-15T02:34:48.306Z,44.28
2022-12-15T02:37:01.512Z,41.45
2022-12-15T02:39:10.169Z,44.75
2022-12-15T02:41:48.884Z,42.42
2022-12-15T02:43:56.775Z,41.17
2022-12-15T02:46:22.165Z,45.38
2022-12-15T02:48:39.977Z,39.70
2022-12-15T02:51:04.197Z,43.97
2022-12-15T02:53:35.426Z,41.78
2022-12-15T02:55:55.401Z,41.72
2022-12-15T02:58:09.526Z,40.85
2022-12-15T03:00:18.793Z,43.38
2022-12-15T03:02:34.458Z,41.60
2022-12-15T03:04:45.650Z,44.58
2022-12-15T03:07:01.099Z,46.35
2022-12-15T03:09:09.418Z,45.15
2022-12-15T03:11:19.253Z,42.30
2022-12-15T03:13:27.182Z,43.60
2022-12-15T03:15:35.983Z,47.67
2022-12-15T03:17:46.481Z,44.13
2022-12-15T03:19:55.367Z,46.28
2022-12-15T03:22:03.116Z,45.13
2022-12-15T03:24:11.363Z,46.05
2022-12-15T03:26:21.864Z,44.05
2022-12-15T03:28:29.938Z,48.60
2022-12-15T03:30:38.326Z,45.55
2022-12-15T03:32:50.272Z,44.42
2022-12-15T03:35:01.365Z,47.63
2022-12-15T03:37:09.828Z,48.78
2022-12-15T03:39:24.151Z,43.25
2022-12-15T03:41:32.348Z,46.67
2022-12-15T03:43:40.526Z,46.53
2022-12-15T03:45:49.763Z,43.90
2022-12-15T03:48:00.724Z,46.30
2022-12-15T03:50:09.491Z,47.53
2022-12-15T03:52:17.419Z,46.85
2022-12-15T03:54:26.269Z,46.53
2022-12-15T03:56:34.197Z,44.00
2022-12-15T03:58:41.958Z,47.95
2022-12-15T04:00:52.242Z,46.78
2022-12-15T04:03:04.791Z,44.75
2022-12-15T04:05:19.937Z,51.53
2022-12-15T04:07:27.736Z,40.22
2022-12-15T04:09:35.828Z,43.95
2022-12-15T04:11:44.710Z,42.90
2022-12-15T04:13:53.233Z,47.17
2022-12-15T04:16:05.634Z,44.22
2022-12-15T04:18:16.378Z,45.75
2022-12-15T04:20:23.153Z,47.00
2022-12-15T04:22:30.908Z,47.95
2022-12-15T04:24:51.104Z,42.85
2022-12-15T04:27:11.608Z,42.40
2022-12-15T04:29:31.760Z,41.60
2022-12-15T04:31:52.019Z,48.38
2022-12-15T04:34:19.122Z,45.50
2022-12-15T04:36:39.785Z,45.20
2022-12-15T04:39:00.261Z,49.70
2022-12-15T04:41:21.172Z,44.22
2022-12-15T04:43:43.212Z,48.88
2022-12-15T04:46:03.530Z,46.92
2022-12-15T04:48:25.520Z,46.33
2022-12-15T04:50:48.714Z,46.67
2022-12-15T04:53:14.925Z,45.05
2022-12-15T04:55:35.860Z,46.00
2022-12-15T04:57:56.279Z,43.65
2022-12-15T05:00:17.329Z,45.47
2022-12-15T05:02:38.072Z,43.70
2022-12-15T05:04:58.484Z,44.20
2022-12-15T05:07:21.536Z,43.70
2022-12-15T05:09:42.047Z,44.28
2022-12-15T05:12:02.339Z,47.63
2022-12-15T05:14:22.628Z,42.70
2022-12-15T05:16:42.960Z,46.63
2022-12-15T05:19:03.426Z,48.88
2022-12-15T05:21:23.952Z,44.83
2022-12-15T05:23:58.102Z,46.20
2022-12-15T05:26:18.688Z,49.72
2022-12-15T05:28:39.233Z,43.25
2022-12-15T05:30:59.967Z,47.65
2022-12-15T05:33:08.976Z,43.95
2022-12-15T05:35:17.031Z,46.58
2022-12-15T05:37:25.042Z,50.40
2022-12-15T05:39:36.768Z,43.78
2022-12-15T05:41:45.322Z,45.78
2022-12-15T05:43:56.336Z,45.20
2022-12-15T05:46:06.207Z,45.75
2022-12-15T05:48:14.795Z,41.88
2022-12-15T05:50:23.810Z,51.15
2022-12-15T05:52:31.682Z,42.17
2022-12-15T05:54:42.572Z,45.53
2022-12-15T05:56:52.296Z,44.67
2022-12-15T05:59:00.487Z,45.45
2022-12-15T06:01:10.040Z,41.50
2022-12-15T06:03:18.797Z,40.33
2022-12-15T06:05:26.761Z,40.60
2022-12-15T06:07:34.823Z,45.03
2022-12-15T06:09:45.441Z,51.45
2022-12-15T06:11:53.938Z,42.30
2022-12-15T06:14:01.823Z,43.40
2022-12-15T06:16:16.921Z,46.58
2022-12-15T06:18:25.759Z,45.10
2022-12-15T06:20:36.751Z,48.75
2022-12-15T06:22:49.900Z,48.85
2022-12-15T06:25:01.074Z,39.90
2022-12-15T06:27:09.199Z,43.60
2022-12-15T06:29:19.370Z,41.35
2022-12-15T06:31:28.933Z,41.67
2022-12-15T06:33:37.519Z,44.60
2022-12-15T06:35:45.886Z,44.60
2022-12-15T06:37:53.905Z,42.70
2022-12-15T06:40:05.782Z,42.80
2022-12-15T06:42:14.905Z,50.25
2022-12-15T06:44:23.847Z,44.70
2022-12-15T06:46:35.059Z,45.70
2022-12-15T06:48:45.172Z,44.72
2022-12-15T06:50:53.992Z,43.53
2022-12-15T06:53:02.910Z,47.25
2022-12-15T06:55:14.303Z,46.45
2022-12-15T06:57:22.236Z,43.45
2022-12-15T06:59:30.186Z,47.83
2022-12-15T07:01:39.094Z,46.00
2022-12-15T07:03:48.147Z,44.92
2022-12-15T07:06:05.647Z,45.88
2022-12-15T07:08:15.085Z,40.67
2022-12-15T07:10:27.128Z,47.25
2022-12-15T07:12:34.999Z,45.08
2022-12-15T07:14:44.791Z,50.70
2022-12-15T07:17:00.392Z,45.15
2022-12-15T07:19:08.914Z,41.03
2022-12-15T07:21:17.346Z,45.90
2022-12-15T07:23:46.015Z,45.97
2022-12-15T07:25:56.161Z,45.42
2022-12-15T07:28:04.670Z,40.58
2022-12-15T07:30:16.082Z,44.08
2022-12-15T07:32:26.108Z,43.30
2022-12-15T07:34:35.233Z,43.30
2022-12-15T07:36:48.544Z,46.97
2022-12-15T07:39:04.946Z,44.10
2022-12-15T07:41:15.353Z,41.85
2022-12-15T07:43:24.431Z,47.70
2022-12-15T07:45:33.320Z,44.60
2022-12-15T07:47:42.816Z,44.38
2022-12-15T07:49:51.004Z,46.83
2022-12-15T07:51:59.435Z,48.30
2022-12-15T07:54:07.561Z,50.60
2022-12-15T07:56:18.179Z,47.05
2022-12-15T07:58:26.462Z,47.72
2022-12-15T08:00:34.353Z,44.15
2022-12-15T08:02:44.174Z,42.75
2022-12-15T08:04:54.347Z,59.88
2022-12-15T08:07:02.720Z,46.90
2022-12-15T08:09:10.898Z,42.92
2022-12-15T08:11:25.069Z,45.92
2022-12-15T08:14:01.325Z,41.20
2022-12-15T08:16:01.637Z,53.58
2022-12-15T08:18:11.024Z,51.63
2022-12-15T08:20:19.325Z,52.40
2022-12-15T08:22:27.384Z,51.70
2022-12-15T08:24:35.380Z,45.65
2022-12-15T08:26:49.950Z,45.60
2022-12-15T08:29:11.833Z,46.92
2022-12-15T08:31:29.037Z,48.40
2022-12-15T08:33:38.675Z,44.10
2022-12-15T08:35:56.856Z,46.83
2022-12-15T08:38:05.877Z,47.33
2022-12-15T08:40:15.327Z,41.20
2022-12-15T08:42:27.019Z,45.65
2022-12-15T08:44:36.659Z,44.42
2022-12-15T08:46:44.865Z,43.65
2022-12-15T08:48:56.645Z,47.30
2022-12-15T08:51:06.322Z,40.95
2022-12-15T08:53:30.834Z,42.38
2022-12-15T08:55:39.531Z,40.45
2022-12-15T08:57:50.664Z,43.00
2022-12-15T08:59:58.482Z,40.50
2022-12-15T09:02:15.675Z,45.65
2022-12-15T09:04:24.093Z,41.60
2022-12-15T09:06:34.040Z,42.75
2022-12-15T09:08:41.999Z,42.38
2022-12-15T09:10:52.405Z,44.67
2022-12-15T09:13:03.761Z,45.08
2022-12-15T09:15:14.375Z,40.78
2022-12-15T09:17:22.395Z,41.88
2022-12-15T09:19:30.275Z,41.80
2022-12-15T09:21:45.027Z,47.55
2022-12-15T09:23:55.600Z,44.70
2022-12-15T09:26:03.930Z,40.88
2022-12-15T09:28:14.992Z,39.90
2022-12-15T09:30:23.247Z,54.38
2022-12-15T09:32:31.732Z,42.72
2022-12-15T09:34:40.238Z,44.05
2022-12-15T09:36:48.562Z,41.17
2022-12-15T09:38:57.460Z,43.03
2022-12-15T09:41:12.272Z,35.17
2022-12-15T09:43:34.988Z,42.13
2022-12-15T09:45:49.230Z,37.65
2022-12-15T09:48:02.455Z,35.88
2022-12-15T09:50:17.281Z,38.65
2022-12-15T09:52:29.297Z,40.88
2022-12-15T09:54:37.612Z,37.78
2022-12-15T09:56:53.794Z,37.85
2022-12-15T09:59:16.189Z,37.58
2022-12-15T10:01:32.229Z,39.13
2022-12-15T10:03:53.708Z,37.33
2022-12-15T10:06:20.041Z,39.35
2022-12-15T10:08:33.861Z,43.78
2022-12-15T10:10:50.172Z,38.30
2022-12-15T10:13:03.590Z,40.30
2022-12-15T10:15:23.113Z,38.72
2022-12-15T10:17:40.838Z,36.38
2022-12-15T10:19:56.605Z,35.30
2022-12-15T10:22:04.636Z,37.33
2022-12-15T10:26:57.859Z,37.72
2022-12-15T10:29:15.944Z,38.60
2022-12-15T10:31:36.824Z,38.38
2022-12-15T10:33:50.147Z,40.17
2022-12-15T10:35:59.489Z,40.17
2022-12-15T10:38:30.861Z,35.83
2022-12-15T10:40:57.473Z,42.25
2022-12-15T10:43:29.560Z,34.28
2022-12-15T10:45:44.052Z,37.15
2022-12-15T10:48:02.847Z,37.72
2022-12-15T10:50:27.861Z,39.47
2022-12-15T10:52:43.774Z,36.33
2022-12-15T10:54:54.373Z,39.47
2022-12-15T10:57:06.567Z,39.25
2022-12-15T10:59:31.854Z,37.05
2022-12-15T11:01:41.151Z,43.50
2022-12-15T11:03:55.009Z,39.83
2022-12-15T11:06:03.159Z,37.22
2022-12-15T11:08:19.363Z,35.25
2022-12-15T11:10:52.998Z,35.80
2022-12-15T11:13:10.745Z,43.03
2022-12-15T11:15:50.780Z,39.50
2022-12-15T11:18:05.902Z,35.08
2022-12-15T11:20:25.676Z,37.78
2022-12-15T11:22:42.702Z,39.58
2022-12-15T11:25:16.830Z,41.92
2022-12-15T11:27:31.355Z,44.85
2022-12-15T11:30:00.362Z,34.60
2022-12-15T11:32:08.535Z,37.28
2022-12-15T11:34:21.270Z,38.00
2022-12-15T11:36:54.159Z,34.70
2022-12-15T11:39:12.281Z,36.47
2022-12-15T11:41:37.408Z,30.98
2022-12-15T11:44:06.251Z,34.00
2022-12-15T11:46:27.314Z,32.58
2022-12-15T11:48:45.200Z,31.88
2022-12-15T11:50:58.658Z,32.50
2022-12-15T11:53:45.133Z,30.52
2022-12-15T11:56:12.597Z,28.10
2022-12-15T11:58:36.443Z,32.33
2022-12-15T12:01:04.294Z,36.00
2022-12-15T12:03:29.867Z,33.88
2022-12-15T12:05:57.943Z,32.00
2022-12-15T12:08:23.619Z,33.03
2022-12-15T12:10:41.199Z,30.45
2022-12-15T12:13:00.293Z,35.60
2022-12-15T12:15:27.902Z,34.70
2022-12-15T12:17:45.223Z,33.10
2022-12-15T12:19:57.653Z,34.60
2022-12-15T12:22:10.549Z,33.65
2022-12-15T12:24:26.765Z,33.35
2022-12-15T12:26:41.764Z,32.53
2022-12-15T12:28:59.166Z,39.45
2022-12-15T12:31:13.908Z,35.22
2022-12-15T12:33:34.782Z,34.63
2022-12-15T12:35:49.233Z,33.42
2022-12-15T12:38:04.038Z,35.65
2022-12-15T12:40:23.133Z,32.72
2022-12-15T12:42:44.474Z,33.17
2022-12-15T12:44:57.954Z,36.10
2022-12-15T12:47:19.116Z,36.15
2022-12-15T12:49:34.893Z,37.17
2022-12-15T12:51:46.445Z,32.95
2022-12-15T12:53:57.613Z,30.95
2022-12-15T12:56:07.097Z,30.52
2022-12-15T12:58:37.002Z,32.95
2022-12-15T13:01:08.133Z,32.25
2022-12-15T13:03:23.610Z,30.23
2022-12-15T13:05:36.267Z,31.80
2022-12-15T13:07:44.399Z,32.47
2022-12-15T13:10:15.737Z,31.30
2022-12-15T13:12:52.256Z,29.38
2022-12-15T13:15:02.061Z,29.65
2022-12-15T13:17:27.649Z,36.25
2022-12-15T13:20:11.042Z,29.08
2022-12-15T13:22:28.487Z,36.20
2022-12-15T13:24:39.525Z,33.22
2022-12-15T13:26:48.780Z,27.95
2022-12-15T13:28:59.726Z,28.17
2022-12-15T13:31:30.324Z,28.85
2022-12-15T13:33:47.964Z,30.70
2022-12-15T13:35:56.644Z,32.70
2022-12-15T13:38:07.573Z,33.58
2022-12-15T13:40:33.269Z,34.45
2022-12-15T13:42:52.980Z,36.67
2022-12-15T13:45:18.311Z,30.70
2022-12-15T13:47:30.881Z,33.47
2022-12-15T13:53:08.727Z,30.17
2022-12-15T13:55:03.909Z,30.40
2022-12-15T13:57:15.725Z,34.55
2022-12-15T13:59:32.923Z,33.65
2022-12-15T14:01:41.533Z,35.00
2022-12-15T14:04:00.696Z,36.90
2022-12-15T14:06:18.627Z,32.60
2022-12-15T14:08:29.067Z,32.38
2022-12-15T14:10:42.701Z,35.53
2022-12-15T14:12:54.717Z,31.55
2022-12-15T14:15:07.334Z,35.72
2022-12-15T14:17:19.711Z,31.48
2022-12-15T14:19:28.455Z,30.98
2022-12-15T14:21:43.040Z,29.55
2022-12-15T14:24:36.571Z,33.00
2022-12-15T14:26:19.926Z,30.05
2022-12-15T14:28:34.292Z,30.25
2022-12-15T14:30:43.955Z,32.20
2022-12-15T14:32:56.805Z,33.47
2022-12-15T14:35:04.911Z,31.88
2022-12-15T14:37:21.998Z,33.53
2022-12-15T14:39:40.111Z,33.10
2022-12-15T14:41:51.480Z,32.70
2022-12-15T14:44:31.345Z,32.55
2022-12-15T14:46:32.563Z,31.58
2022-12-15T14:48:46.108Z,28.33
2022-12-15T14:50:55.327Z,33.88
2022-12-15T14:53:15.446Z,35.22
2022-12-15T14:55:37.199Z,30.83
2022-12-15T14:57:48.463Z,32.60
2022-12-15T14:59:56.823Z,32.75
2022-12-15T15:02:15.680Z,37.25
2022-12-15T15:03:09.975Z,38.35
2022-12-15T15:03:10.905Z,33.55
2022-12-15T15:04:29.369Z,35.90
2022-12-15T15:06:43.588Z,33.85
2022-12-15T15:09:22.893Z,38.03
2022-12-15T15:11:35.818Z,33.58
2022-12-15T15:13:44.189Z,34.42
2022-12-15T15:15:56.957Z,33.92
2022-12-15T15:18:05.622Z,35.10
2022-12-15T15:20:21.997Z,36.70
2022-12-15T15:22:40.859Z,39.45
2022-12-15T15:24:54.435Z,41.15
2022-12-15T15:27:27.129Z,35.53
2022-12-15T15:29:43.250Z,36.85
2022-12-15T15:31:56.479Z,40.22
2022-12-15T15:34:07.500Z,36.45
2022-12-15T15:36:15.910Z,36.95
2022-12-15T15:38:27.314Z,38.92
2022-12-15T15:40:38.163Z,42.45
2022-12-15T15:42:49.295Z,36.00
2022-12-15T15:44:57.211Z,39.83
2022-12-15T15:47:05.691Z,37.42
2022-12-15T15:49:20.300Z,36.80
2022-12-15T15:51:32.282Z,37.15
2022-12-15T15:53:44.413Z,33.72
2022-12-15T15:55:57.339Z,35.45
2022-12-15T15:58:05.409Z,38.13
2022-12-15T16:00:21.535Z,33.83
2022-12-15T16:02:29.743Z,34.17
2022-12-15T16:04:40.870Z,34.63
2022-12-15T16:06:52.560Z,32.85
2022-12-15T16:09:02.929Z,34.58
2022-12-15T16:11:17.193Z,30.98
2022-12-15T16:13:32.374Z,36.78
2022-12-15T16:15:40.960Z,36.58
2022-12-15T16:17:53.501Z,38.53
2022-12-15T16:20:01.312Z,36.13
2022-12-15T16:22:11.503Z,32.78
2022-12-15T16:24:21.708Z,33.05
2022-12-15T16:26:37.274Z,31.85
2022-12-15T16:28:45.403Z,38.00
2022-12-15T16:30:53.688Z,34.25
2022-12-15T16:33:03.483Z,34.38
2022-12-15T16:35:12.044Z,33.72
2022-12-15T16:37:34.818Z,31.02
2022-12-15T16:39:46.430Z,35.45
2022-12-15T16:41:58.744Z,30.67
2022-12-15T16:44:10.060Z,33.60
2022-12-15T16:46:20.397Z,32.67
2022-12-15T16:48:28.487Z,37.40
2022-12-15T16:50:39.580Z,29.73
2022-12-15T16:52:54.807Z,30.25
2022-12-15T16:55:03.295Z,30.75
2022-12-15T16:57:16.536Z,32.13
2022-12-15T16:59:33.406Z,28.50
2022-12-15T17:01:43.248Z,32.05
2022-12-15T17:03:53.564Z,29.50
2022-12-15T17:06:04.869Z,30.63
2022-12-15T17:08:19.189Z,29.98
2022-12-15T17:10:30.108Z,31.63
2022-12-15T17:12:45.425Z,32.13
2022-12-15T17:14:53.201Z,34.33
2022-12-15T17:17:02.301Z,35.72
2022-12-15T17:19:10.172Z,25.98
2022-12-15T17:21:25.895Z,33.03
2022-12-15T17:23:36.600Z,33.05
2022-12-15T17:26:19.946Z,29.58
2022-12-15T17:28:23.575Z,34.55
2022-12-15T17:30:33.212Z,32.88
2022-12-15T17:32:41.084Z,30.25
2022-12-15T17:34:48.953Z,30.30
2022-12-15T17:36:57.873Z,32.83
2022-12-15T17:39:06.380Z,29.13
2022-12-15T17:41:42.273Z,27.60
2022-12-15T17:44:04.358Z,33.22
2022-12-15T17:46:19.442Z,31.80
2022-12-15T17:48:28.156Z,30.33
2022-12-15T17:50:36.257Z,33.40
2022-12-15T17:52:46.579Z,32.72
2022-12-15T17:54:59.984Z,35.58
2022-12-15T17:57:07.838Z,28.45
2022-12-15T17:59:21.415Z,28.90
2022-12-15T18:01:31.047Z,30.05
2022-12-15T18:03:39.094Z,31.58
2022-12-15T18:05:47.989Z,29.35
2022-12-15T18:07:59.264Z,31.90
2022-12-15T18:10:09.301Z,35.72
2022-12-15T18:12:23.953Z,43.92
2022-12-15T18:14:34.686Z,32.72
2022-12-15T18:16:48.696Z,32.67
2022-12-15T18:18:56.599Z,32.25
2022-12-15T18:21:16.573Z,31.45
2022-12-15T18:23:30.775Z,32.42
2022-12-15T18:25:39.127Z,31.40
2022-12-15T18:27:47.944Z,36.75
2022-12-15T18:29:59.093Z,34.30
2022-12-15T18:32:07.159Z,32.00
2022-12-15T18:34:18.507Z,34.25
2022-12-15T18:36:27.481Z,34.20
2022-12-15T18:38:36.587Z,33.22
2022-12-15T18:40:44.563Z,35.53
2022-12-15T18:42:54.254Z,38.30
2022-12-15T18:45:08.406Z,39.08
2022-12-15T18:47:19.964Z,38.30
2022-12-15T18:49:28.001Z,35.50
2022-12-15T18:51:39.131Z,35.58
2022-12-15T18:53:49.188Z,36.67
2022-12-15T18:55:59.945Z,33.65
2022-12-15T18:58:12.319Z,36.95
2022-12-15T19:00:31.041Z,44.05
2022-12-15T19:02:39.083Z,37.08
2022-12-15T19:04:47.039Z,31.23
2022-12-15T19:06:55.169Z,37.85
2022-12-15T19:09:03.608Z,31.17
2022-12-15T19:11:15.734Z,34.17
2022-12-15T19:13:26.794Z,34.05
2022-12-15T19:15:38.683Z,33.35
2022-12-15T19:18:04.757Z,35.40
2022-12-15T19:20:32.458Z,35.00
2022-12-15T19:22:41.232Z,36.95
2022-12-15T19:24:59.774Z,38.45
2022-12-15T19:27:14.174Z,36.13
2022-12-15T19:29:24.867Z,31.25
2022-12-15T19:31:36.828Z,35.35
2022-12-15T19:33:45.960Z,31.40
2022-12-15T19:35:55.846Z,36.67
2022-12-15T19:38:07.762Z,33.20
2022-12-15T19:40:23.719Z,30.80
2022-12-15T19:42:34.053Z,28.90
2022-12-15T19:44:52.808Z,33.17
2022-12-15T19:47:03.231Z,34.88
2022-12-15T19:49:11.603Z,30.77
2022-12-15T19:51:25.097Z,32.80
2022-12-15T19:53:36.241Z,31.85
2022-12-15T19:55:44.800Z,31.67
2022-12-15T19:57:52.623Z,30.75
2022-12-15T20:00:01.366Z,29.88
2022-12-15T20:02:19.494Z,32.17
2022-12-15T20:04:29.375Z,33.28
2022-12-15T20:06:45.978Z,30.67
2022-12-15T20:08:56.097Z,30.58
2022-12-15T20:11:04.500Z,31.00
2022-12-15T20:13:16.725Z,32.35
2022-12-15T20:15:29.825Z,32.63
2022-12-15T20:17:47.343Z,35.35
2022-12-15T20:19:58.594Z,34.90
2022-12-15T20:22:07.425Z,32.72
2022-12-15T20:24:20.889Z,33.72
2022-12-15T20:26:32.089Z,33.80
2022-12-15T20:28:46.183Z,36.67
2022-12-15T20:30:57.502Z,34.67
2022-12-15T20:33:10.082Z,37.65
2022-12-15T20:35:19.784Z,32.90
2022-12-15T20:37:32.013Z,30.20
2022-12-15T20:39:40.398Z,37.00
2022-12-15T20:41:49.571Z,31.88
2022-12-15T20:44:27.807Z,35.33
2022-12-15T20:46:38.531Z,31.23
2022-12-15T20:48:49.632Z,31.52
2022-12-15T20:50:57.947Z,32.45
2022-12-15T20:53:15.651Z,33.53
2022-12-15T20:55:23.961Z,32.50
2022-12-15T20:57:33.667Z,33.60
2022-12-15T20:59:41.836Z,30.85
2022-12-15T21:01:52.680Z,30.33
2022-12-15T21:04:26.098Z,35.97
2022-12-15T21:06:34.219Z,33.83
2022-12-15T21:08:54.332Z,33.20
2022-12-15T21:11:22.101Z,31.17
2022-12-15T21:13:49.161Z,38.47
2022-12-15T21:15:57.350Z,32.15
2022-12-15T21:18:46.676Z,30.95
2022-12-15T21:21:02.702Z,32.85
2022-12-15T21:23:22.984Z,30.00
2022-12-15T21:25:30.877Z,31.92
2022-12-15T21:27:38.827Z,34.75
2022-12-15T21:29:52.372Z,33.38
2022-12-15T21:32:00.823Z,29.83
2022-12-15T21:34:09.574Z,32.65
2022-12-15T21:36:21.892Z,29.42
2022-12-15T21:38:35.852Z,32.92
2022-12-15T21:40:47.427Z,31.20
2022-12-15T21:42:57.619Z,36.67
2022-12-15T21:45:06.032Z,34.72
2022-12-15T21:47:49.144Z,33.80
2022-12-15T21:49:55.152Z,36.83
2022-12-15T21:52:07.601Z,37.05
2022-12-15T21:54:22.082Z,37.50
2022-12-15T21:56:34.201Z,31.50
2022-12-15T21:59:05.880Z,38.50
2022-12-15T22:01:17.536Z,34.58
2022-12-15T22:03:25.579Z,38.40
2022-12-15T22:05:34.517Z,33.95
2022-12-15T22:07:45.395Z,37.80
2022-12-15T22:09:53.644Z,38.38
2022-12-15T22:12:02.249Z,38.67
2022-12-15T22:14:21.438Z,35.78
2022-12-15T22:16:30.007Z,42.08
2022-12-15T22:18:38.087Z,42.50
2022-12-15T22:20:48.210Z,35.80
2022-12-15T22:22:58.902Z,36.10
2022-12-15T22:25:08.666Z,38.80
2022-12-15T22:27:21.806Z,37.53
2022-12-15T22:29:31.747Z,40.03
2022-12-15T22:31:42.036Z,41.63
2022-12-15T22:33:50.917Z,40.42
2022-12-15T22:35:59.584Z,37.58
2022-12-15T22:38:10.824Z,37.97
2022-12-15T22:40:20.600Z,39.88
2022-12-15T22:42:28.429Z,38.35
2022-12-15T22:44:39.780Z,39.28
2022-12-15T22:46:48.228Z,39.10
2022-12-15T22:48:57.048Z,36.55
2022-12-15T22:51:04.952Z,36.55
2022-12-15T22:53:19.386Z,42.63
2022-12-15T22:55:29.543Z,44.22
2022-12-15T22:57:37.199Z,42.10
2022-12-15T23:00:05.779Z,41.30
2022-12-15T23:02:15.869Z,40.75
2022-12-15T23:04:24.040Z,47.33
2022-12-15T23:06:32.253Z,43.35
2022-12-15T23:08:42.773Z,41.95
2022-12-15T23:11:03.364Z,40.50
2022-12-15T23:13:13.944Z,42.33
2022-12-15T23:15:34.203Z,43.63
2022-12-15T23:17:41.997Z,42.22
2022-12-15T23:19:50.987Z,43.63
2022-12-15T23:21:59.547Z,46.58
2022-12-15T23:24:11.208Z,45.45
2022-12-15T23:26:22.276Z,43.65
2022-12-15T23:28:30.693Z,44.33
2022-12-15T23:30:38.695Z,44.83
2022-12-15T23:32:46.695Z,46.80
2022-12-15T23:34:54.853Z,50.40
2022-12-15T23:37:02.837Z,48.45
2022-12-15T23:39:17.752Z,45.78
2022-12-15T23:41:26.803Z,47.50
2022-12-15T23:43:36.413Z,47.22
2022-12-15T23:45:45.139Z,47.90
2022-12-15T23:47:53.024Z,48.05
2022-12-15T23:50:02.323Z,46.75
2022-12-15T23:52:10.878Z,47.13
2022-12-15T23:54:21.696Z,49.55
2022-12-15T23:56:30.781Z,51.83
2022-12-15T23:58:39.450Z,49.28
